createdAt,value
2018-09-28T00:00:17.209Z,18.60
2018-09-28T00:02:45.065Z,20.43
2018-09-28T00:05:12.733Z,15.27
2018-09-28T00:07:40.312Z,17.90
2018-09-28T00:10:08.124Z,12.00
2018-09-28T00:12:36.821Z,9.63
2018-09-28T00:15:04.561Z,14.77
2018-09-28T00:17:32.848Z,15.77
2018-09-28T00:20:00.485Z,17.97
2018-09-28T00:22:28.064Z,16.70
2018-09-28T00:24:57.263Z,14.00
2018-09-28T00:27:24.974Z,18.20
2018-09-28T00:29:52.829Z,10.00
2018-09-28T00:34:59.075Z,15.77
2018-09-28T00:37:27.187Z,14.40
2018-09-28T00:39:55.065Z,10.33
2018-09-28T00:42:22.790Z,17.43
2018-09-28T00:44:50.613Z,15.67
2018-09-28T00:47:19.580Z,14.70
2018-09-28T00:49:47.753Z,16.37
2018-09-28T00:52:16.386Z,17.90
2018-09-28T00:54:43.753Z,16.07
2018-09-28T00:57:11.530Z,17.63
2018-09-28T00:59:39.247Z,16.93
2018-09-28T01:02:06.713Z,9.90
2018-09-28T01:04:35.064Z,15.50
2018-09-28T01:07:02.924Z,12.07
2018-09-28T01:09:33.487Z,9.07
2018-09-28T01:12:01.137Z,7.70
2018-09-28T01:14:31.080Z,9.20
2018-09-28T01:16:58.313Z,16.47
2018-09-28T01:19:25.733Z,8.40
2018-09-28T01:21:52.929Z,12.20
2018-09-28T01:24:20.124Z,6.20
2018-09-28T01:26:47.359Z,5.83
2018-09-28T01:29:14.933Z,5.13
2018-09-28T01:31:42.157Z,6.03
2018-09-28T01:34:09.681Z,5.17
2018-09-28T01:36:36.928Z,7.53
2018-09-28T01:39:05.693Z,5.13
2018-09-28T01:41:32.892Z,9.43
2018-09-28T01:44:00.240Z,4.93
2018-09-28T01:46:27.439Z,7.73
2018-09-28T01:48:54.729Z,4.20
2018-09-28T01:51:22.074Z,7.80
2018-09-28T01:53:49.290Z,4.87
2018-09-28T01:56:16.480Z,4.47
2018-09-28T01:58:43.693Z,4.43
2018-09-28T02:01:10.867Z,4.23
2018-09-28T02:03:38.082Z,4.70
2018-09-28T02:06:05.644Z,6.47
2018-09-28T02:08:33.195Z,6.33
2018-09-28T02:11:00.388Z,10.70
2018-09-28T02:13:27.569Z,6.33
2018-09-28T02:15:54.852Z,5.30
2018-09-28T02:18:21.958Z,5.20
2018-09-28T02:20:49.177Z,5.07
2018-09-28T02:23:16.364Z,5.13
2018-09-28T02:25:43.585Z,11.73
2018-09-28T02:28:10.782Z,5.20
2018-09-28T02:30:37.965Z,6.63
2018-09-28T02:33:05.368Z,4.43
2018-09-28T02:35:32.559Z,4.00
2018-09-28T02:37:59.724Z,5.07
2018-09-28T02:40:27.129Z,4.20
2018-09-28T02:42:54.286Z,6.60
2018-09-28T02:45:21.605Z,4.20
2018-09-28T02:47:49.191Z,4.53
2018-09-28T02:50:16.376Z,4.40
2018-09-28T02:52:43.625Z,4.50
2018-09-28T02:55:11.009Z,4.63
2018-09-28T02:57:38.197Z,4.77
2018-09-28T03:00:05.412Z,5.20
2018-09-28T03:02:32.717Z,4.37
2018-09-28T03:04:59.890Z,4.50
2018-09-28T03:07:27.078Z,4.30
2018-09-28T03:09:54.317Z,7.00
2018-09-28T03:12:21.644Z,4.40
2018-09-28T03:14:48.976Z,4.57
2018-09-28T03:17:16.186Z,5.10
2018-09-28T03:19:43.367Z,4.33
2018-09-28T03:22:10.751Z,4.93
2018-09-28T03:24:38.016Z,5.20
2018-09-28T03:27:05.569Z,3.90
2018-09-28T03:29:32.858Z,4.10
2018-09-28T03:32:00.558Z,4.20
2018-09-28T03:34:27.839Z,4.60
2018-09-28T03:36:55.043Z,7.60
2018-09-28T03:39:22.445Z,4.37
2018-09-28T03:41:49.679Z,4.90
2018-09-28T03:44:17.056Z,4.10
2018-09-28T03:46:44.270Z,5.10
2018-09-28T03:49:11.429Z,7.67
2018-09-28T03:51:38.609Z,5.00
2018-09-28T03:54:05.797Z,4.20
2018-09-28T03:56:33.196Z,4.30
2018-09-28T03:59:00.389Z,8.10
2018-09-28T04:01:28.019Z,5.27
2018-09-28T04:03:55.228Z,4.60
2018-09-28T04:06:22.748Z,4.70
2018-09-28T04:08:49.979Z,5.63
2018-09-28T04:11:17.141Z,4.40
2018-09-28T04:13:44.380Z,5.40
2018-09-28T04:16:11.639Z,5.03
2018-09-28T04:18:38.895Z,4.50
2018-09-28T04:21:06.083Z,5.17
2018-09-28T04:23:33.325Z,7.83
2018-09-28T04:26:00.567Z,4.97
2018-09-28T04:28:27.742Z,4.73
2018-09-28T04:30:54.970Z,5.47
2018-09-28T04:33:22.211Z,5.33
2018-09-28T04:35:49.406Z,4.53
2018-09-28T04:38:16.621Z,5.10
2018-09-28T04:40:44.005Z,5.07
2018-09-28T04:43:11.436Z,8.13
2018-09-28T04:45:38.685Z,5.57
2018-09-28T04:48:05.847Z,5.50
2018-09-28T04:50:33.195Z,5.33
2018-09-28T04:53:00.456Z,4.23
2018-09-28T04:55:27.645Z,5.43
2018-09-28T04:57:54.826Z,7.17
2018-09-28T05:00:22.114Z,7.80
2018-09-28T05:02:49.486Z,5.57
2018-09-28T05:05:16.724Z,5.17
2018-09-28T05:07:44.162Z,5.17
2018-09-28T05:10:11.385Z,4.20
2018-09-28T05:12:38.654Z,9.83
2018-09-28T05:15:05.983Z,9.53
2018-09-28T05:17:33.185Z,6.17
2018-09-28T05:20:00.379Z,5.50
2018-09-28T05:22:27.562Z,4.63
2018-09-28T05:24:55.592Z,4.50
2018-09-28T05:27:22.801Z,4.80
2018-09-28T05:29:50.053Z,5.07
2018-09-28T05:32:18.171Z,4.90
2018-09-28T05:34:45.146Z,5.17
2018-09-28T05:37:12.373Z,5.10
2018-09-28T05:39:39.667Z,4.77
2018-09-28T05:42:06.934Z,7.37
2018-09-28T05:44:34.193Z,4.73
2018-09-28T05:47:01.400Z,4.63
2018-09-28T05:49:28.709Z,6.30
2018-09-28T05:51:55.971Z,4.57
2018-09-28T05:54:23.424Z,5.00
2018-09-28T05:56:50.658Z,4.67
2018-09-28T05:59:23.323Z,5.07
2018-09-28T06:01:55.884Z,4.97
2018-09-28T06:04:28.468Z,4.70
2018-09-28T06:06:56.005Z,4.93
2018-09-28T06:09:23.413Z,5.30
2018-09-28T06:11:50.594Z,4.90
2018-09-28T06:14:17.861Z,6.37
2018-09-28T06:16:45.047Z,5.30
2018-09-28T06:19:12.265Z,5.83
2018-09-28T06:24:16.368Z,5.90
2018-09-28T06:26:43.733Z,6.03
2018-09-28T06:29:11.263Z,6.30
2018-09-28T06:31:38.789Z,5.80
2018-09-28T06:34:06.023Z,6.33
2018-09-28T06:36:33.232Z,5.60
2018-09-28T06:39:00.433Z,6.43
2018-09-28T06:41:27.653Z,6.20
2018-09-28T06:43:54.888Z,5.57
2018-09-28T06:46:22.204Z,5.50
2018-09-28T06:48:49.480Z,6.87
2018-09-28T06:51:16.788Z,6.13
2018-09-28T06:53:44.318Z,6.00
2018-09-28T06:56:11.514Z,5.77
2018-09-28T07:00:03.523Z,5.03
2018-09-28T07:02:30.759Z,8.00
2018-09-28T07:04:57.948Z,6.30
2018-09-28T07:07:25.388Z,5.90
2018-09-28T07:09:52.590Z,5.47
2018-09-28T07:12:20.041Z,5.97
2018-09-28T07:14:47.624Z,5.87
2018-09-28T07:17:14.841Z,11.90
2018-09-28T07:19:42.040Z,6.33
2018-09-28T07:22:09.317Z,6.27
2018-09-28T07:24:37.560Z,6.20
2018-09-28T07:27:04.932Z,6.63
2018-09-28T07:29:32.181Z,5.40
2018-09-28T07:31:59.602Z,6.50
2018-09-28T07:34:26.775Z,6.57
2018-09-28T07:36:54.067Z,7.27
2018-09-28T07:39:21.407Z,7.07
2018-09-28T07:41:49.281Z,7.40
2018-09-28T07:44:16.478Z,7.53
2018-09-28T07:46:43.705Z,8.20
2018-09-28T07:49:11.002Z,9.07
2018-09-28T07:51:38.255Z,10.83
2018-09-28T07:54:05.487Z,7.70
2018-09-28T07:56:32.893Z,8.23
2018-09-28T07:59:00.117Z,9.57
2018-09-28T08:01:27.427Z,7.73
2018-09-28T08:03:54.804Z,9.80
2018-09-28T08:06:21.954Z,8.77
2018-09-28T08:08:49.191Z,8.40
2018-09-28T08:11:16.635Z,8.40
2018-09-28T08:13:43.894Z,8.13
2018-09-28T08:16:11.102Z,11.23
2018-09-28T08:18:38.406Z,8.87
2018-09-28T08:21:06.028Z,8.20
2018-09-28T08:23:33.279Z,11.30
2018-09-28T08:26:00.652Z,12.60
2018-09-28T08:28:27.871Z,8.70
2018-09-28T08:30:55.142Z,10.77
2018-09-28T08:33:22.602Z,8.47
2018-09-28T08:35:49.885Z,13.60
2018-09-28T08:38:17.338Z,9.77
2018-09-28T08:40:44.678Z,14.40
2018-09-28T08:43:11.935Z,12.43
2018-09-28T08:45:39.233Z,10.80
2018-09-28T08:48:07.149Z,9.43
2018-09-28T08:50:34.370Z,9.73
2018-09-28T08:53:01.631Z,10.10
2018-09-28T08:55:29.002Z,11.77
2018-09-28T08:57:56.228Z,9.10
2018-09-28T09:00:23.576Z,9.83
2018-09-28T09:02:50.783Z,9.40
2018-09-28T09:05:18.014Z,9.93
2018-09-28T09:07:45.531Z,8.03
2018-09-28T09:10:12.789Z,9.13
2018-09-28T09:12:40.854Z,10.40
2018-09-28T09:15:08.556Z,10.40
2018-09-28T09:17:36.103Z,10.83
2018-09-28T09:20:03.523Z,9.40
2018-09-28T09:22:31.172Z,8.83
2018-09-28T09:24:58.449Z,10.23
2018-09-28T09:27:25.959Z,9.43
2018-09-28T09:29:54.055Z,9.90
2018-09-28T09:32:21.284Z,16.13
2018-09-28T09:34:48.512Z,10.73
2018-09-28T09:37:15.888Z,11.63
2018-09-28T09:39:43.110Z,11.43
2018-09-28T09:42:10.359Z,10.33
2018-09-28T09:44:37.700Z,16.53
2018-09-28T09:47:04.990Z,15.87
2018-09-28T09:49:32.201Z,16.70
2018-09-28T09:51:59.734Z,13.47
2018-09-28T09:54:26.978Z,21.90
2018-09-28T09:56:54.351Z,16.90
2018-09-28T09:59:21.648Z,11.73
2018-09-28T10:01:54.245Z,22.30
2018-09-28T10:04:21.435Z,15.03
2018-09-28T10:06:48.732Z,14.37
2018-09-28T10:09:16.003Z,14.17
2018-09-28T10:11:43.218Z,15.27
2018-09-28T10:14:11.031Z,11.40
2018-09-28T10:16:38.418Z,16.40
2018-09-28T10:19:06.043Z,19.90
2018-09-28T10:21:33.237Z,25.30
2018-09-28T10:24:01.197Z,23.77
2018-09-28T10:26:28.754Z,30.73
2018-09-28T10:28:55.981Z,23.97
2018-09-28T10:31:23.211Z,18.90
2018-09-28T10:33:50.622Z,18.30
2018-09-28T10:36:18.320Z,23.60
2018-09-28T10:38:45.546Z,17.20
2018-09-28T10:41:12.835Z,27.93
2018-09-28T10:43:40.345Z,20.13
2018-09-28T10:46:07.905Z,24.37
2018-09-28T10:48:35.722Z,27.67
2018-09-28T10:51:03.127Z,28.37
2018-09-28T10:53:30.965Z,24.50
2018-09-28T10:55:58.573Z,21.13
2018-09-28T10:58:25.875Z,19.13
2018-09-28T11:00:53.436Z,14.50
2018-09-28T11:03:21.153Z,18.80
2018-09-28T11:05:48.436Z,15.90
2018-09-28T11:08:15.659Z,16.90
2018-09-28T11:10:43.203Z,12.60
2018-09-28T11:13:10.346Z,15.03
2018-09-28T11:15:38.083Z,14.73
2018-09-28T11:18:05.395Z,12.73
2018-09-28T11:20:32.845Z,11.40
2018-09-28T11:23:00.724Z,10.37
2018-09-28T11:25:27.996Z,10.70
2018-09-28T11:27:55.602Z,17.30
2018-09-28T11:30:23.181Z,10.33
2018-09-28T11:32:50.407Z,10.60
2018-09-28T11:35:17.606Z,9.00
2018-09-28T11:37:45.064Z,10.40
2018-09-28T11:40:12.423Z,10.17
2018-09-28T11:42:39.956Z,9.80
2018-09-28T11:45:07.351Z,8.53
2018-09-28T11:47:34.517Z,9.87
2018-09-28T11:50:01.823Z,8.83
2018-09-28T11:52:29.940Z,8.47
2018-09-28T11:54:57.248Z,6.50
2018-09-28T11:57:24.738Z,6.90
2018-09-28T11:59:53.029Z,8.10
2018-09-28T12:02:21.259Z,7.87
2018-09-28T12:04:48.555Z,5.70
2018-09-28T12:07:16.151Z,5.50
2018-09-28T12:09:43.398Z,6.67
2018-09-28T12:12:10.738Z,6.60
2018-09-28T12:14:38.298Z,7.43
2018-09-28T12:17:05.748Z,6.87
2018-09-28T12:19:33.069Z,5.30
2018-09-28T12:22:00.662Z,7.60
2018-09-28T12:24:28.304Z,9.93
2018-09-28T12:26:56.101Z,5.50
2018-09-28T12:29:23.377Z,6.93
2018-09-28T12:31:51.233Z,6.60
2018-09-28T12:34:18.695Z,4.43
2018-09-28T12:36:46.012Z,9.07
2018-09-28T12:39:13.381Z,5.80
2018-09-28T12:41:41.047Z,5.23
2018-09-28T12:44:08.532Z,7.30
2018-09-28T12:46:35.696Z,6.37
2018-09-28T12:49:02.970Z,7.80
2018-09-28T12:51:30.235Z,7.10
2018-09-28T12:53:57.518Z,6.53
2018-09-28T12:56:25.352Z,9.47
2018-09-28T12:58:52.516Z,6.47
2018-09-28T13:01:20.248Z,5.60
2018-09-28T13:03:47.526Z,5.80
2018-09-28T13:06:14.780Z,5.20
2018-09-28T13:08:42.093Z,5.70
2018-09-28T13:11:09.600Z,4.57
2018-09-28T13:13:36.909Z,7.07
2018-09-28T13:16:04.167Z,6.33
2018-09-28T13:18:32.051Z,8.40
2018-09-28T13:20:59.343Z,10.07
2018-09-28T13:23:26.652Z,10.33
2018-09-28T13:25:54.846Z,13.10
2018-09-28T13:28:22.060Z,15.83
2018-09-28T13:30:49.421Z,14.93
2018-09-28T13:33:16.640Z,14.90
2018-09-28T13:35:43.998Z,16.50
2018-09-28T13:41:07.598Z,18.73
2018-09-28T13:43:35.071Z,18.97
2018-09-28T13:46:05.062Z,25.73
2018-09-28T13:48:35.750Z,25.60
2018-09-28T13:53:50.341Z,18.20
2018-09-28T13:56:31.528Z,15.90
2018-09-28T13:59:04.212Z,9.90
2018-09-28T14:01:39.369Z,14.40
2018-09-28T14:04:20.304Z,13.37
2018-09-28T14:06:53.346Z,9.20
2018-09-28T14:09:28.616Z,9.30
2018-09-28T14:11:56.258Z,8.37
2018-09-28T14:14:23.866Z,9.13
2018-09-28T14:16:52.899Z,7.03
2018-09-28T14:19:20.159Z,6.97
2018-09-28T14:21:47.476Z,6.70
2018-09-28T14:24:14.803Z,6.50
2018-09-28T14:26:42.664Z,7.37
2018-09-28T14:29:10.553Z,6.73
2018-09-28T14:31:37.877Z,4.90
2018-09-28T14:34:05.104Z,4.90
2018-09-28T14:36:32.355Z,5.83
2018-09-28T14:38:59.823Z,5.07
2018-09-28T14:41:27.138Z,7.60
2018-09-28T14:43:54.360Z,6.33
2018-09-28T14:46:22.390Z,4.60
2018-09-28T14:48:50.209Z,5.13
2018-09-28T14:51:17.298Z,4.73
2018-09-28T14:53:44.756Z,8.53
2018-09-28T14:56:12.142Z,4.70
2018-09-28T14:58:40.027Z,5.13
2018-09-28T15:01:07.455Z,5.70
2018-09-28T15:03:34.670Z,8.20
2018-09-28T15:06:01.968Z,3.17
2018-09-28T15:08:29.297Z,4.63
2018-09-28T15:10:56.745Z,5.60
2018-09-28T15:13:24.135Z,3.67
2018-09-28T15:15:51.360Z,4.67
2018-09-28T15:18:18.755Z,2.83
2018-09-28T15:20:46.738Z,6.07
2018-09-28T15:23:14.108Z,4.10
2018-09-28T15:25:41.574Z,3.97
2018-09-28T15:28:08.898Z,3.83
2018-09-28T15:30:36.146Z,3.50
2018-09-28T15:33:03.372Z,5.00
2018-09-28T15:35:30.918Z,3.90
2018-09-28T15:37:58.250Z,9.33
2018-09-28T15:40:25.470Z,5.13
2018-09-28T15:42:52.785Z,3.80
2018-09-28T15:45:20.054Z,5.30
2018-09-28T15:47:47.319Z,5.43
2018-09-28T15:50:14.946Z,5.70
2018-09-28T15:52:42.377Z,8.03
2018-09-28T15:55:09.722Z,5.93
2018-09-28T15:57:37.014Z,4.87
2018-09-28T16:00:04.572Z,6.30
2018-09-28T16:02:31.813Z,5.13
2018-09-28T16:04:59.108Z,14.30
2018-09-28T16:07:27.428Z,3.23
2018-09-28T16:09:54.700Z,6.40
2018-09-28T16:12:22.369Z,3.00
2018-09-28T16:14:49.624Z,5.60
2018-09-28T16:17:16.983Z,6.83
2018-09-28T16:19:45.601Z,5.53
2018-09-28T16:22:25.552Z,3.60
2018-09-28T16:24:53.137Z,3.60
2018-09-28T16:27:26.462Z,4.90
2018-09-28T16:29:55.303Z,4.50
2018-09-28T16:32:23.241Z,5.67
2018-09-28T16:34:50.723Z,3.80
2018-09-28T16:37:19.339Z,7.37
2018-09-28T16:39:48.018Z,8.50
2018-09-28T16:42:16.146Z,8.13
2018-09-28T16:44:43.897Z,7.00
2018-09-28T16:47:11.775Z,6.10
2018-09-28T16:49:39.868Z,2.20
2018-09-28T16:52:07.357Z,4.53
2018-09-28T16:54:35.417Z,8.73
2018-09-28T16:57:03.194Z,6.93
2018-09-28T16:59:30.494Z,3.67
2018-09-28T17:01:58.178Z,4.47
2018-09-28T17:04:26.042Z,2.23
2018-09-28T17:06:53.421Z,4.53
2018-09-28T17:09:20.942Z,5.90
2018-09-28T17:11:48.450Z,6.50
2018-09-28T17:14:16.333Z,2.53
2018-09-28T17:16:43.836Z,2.47
2018-09-28T17:19:11.535Z,8.00
2018-09-28T17:21:39.251Z,6.00
2018-09-28T17:24:07.396Z,8.20
2018-09-28T17:26:34.862Z,3.43
2018-09-28T17:29:02.218Z,4.83
2018-09-28T17:31:30.111Z,4.63
2018-09-28T17:33:57.858Z,3.33
2018-09-28T17:36:25.245Z,3.03
2018-09-28T17:38:52.579Z,6.77
2018-09-28T17:41:20.107Z,6.13
2018-09-28T17:43:47.486Z,4.63
2018-09-28T17:46:14.945Z,7.83
2018-09-28T17:48:42.579Z,5.73
2018-09-28T17:51:11.049Z,3.67
2018-09-28T17:53:38.336Z,2.23
2018-09-28T17:56:07.590Z,8.13
2018-09-28T17:58:35.088Z,5.00
2018-09-28T18:01:02.968Z,5.60
2018-09-28T18:03:30.580Z,6.63
2018-09-28T18:06:04.473Z,9.43
2018-09-28T18:08:32.214Z,4.77
2018-09-28T18:11:00.240Z,2.93
2018-09-28T18:13:28.054Z,5.50
2018-09-28T18:15:55.612Z,4.23
2018-09-28T18:18:23.108Z,6.83
2018-09-28T18:20:54.415Z,3.80
2018-09-28T18:23:22.346Z,5.60
2018-09-28T18:25:51.878Z,2.97
2018-09-28T18:28:19.517Z,2.70
2018-09-28T18:30:47.478Z,4.63
2018-09-28T18:33:14.848Z,2.67
2018-09-28T18:35:42.218Z,7.23
2018-09-28T18:38:09.614Z,5.40
2018-09-28T18:40:37.455Z,3.50
2018-09-28T18:43:04.971Z,12.83
2018-09-28T18:45:33.789Z,8.10
2018-09-28T18:48:03.220Z,11.43
2018-09-28T18:50:30.964Z,4.07
2018-09-28T18:52:58.971Z,7.07
2018-09-28T18:55:27.232Z,14.27
2018-09-28T18:57:55.376Z,5.07
2018-09-28T19:00:23.575Z,4.10
2018-09-28T19:02:52.092Z,6.83
2018-09-28T19:05:19.649Z,7.27
2018-09-28T19:07:48.257Z,9.63
2018-09-28T19:10:15.904Z,5.67
2018-09-28T19:12:43.456Z,6.20
2018-09-28T19:15:10.657Z,2.50
2018-09-28T19:17:38.295Z,8.30
2018-09-28T19:20:05.645Z,5.13
2018-09-28T19:22:33.343Z,11.13
2018-09-28T19:25:00.611Z,7.20
2018-09-28T19:27:28.101Z,5.90
2018-09-28T19:29:55.454Z,2.40
2018-09-28T19:32:23.134Z,6.60
2018-09-28T19:34:50.393Z,6.03
2018-09-28T19:37:17.757Z,6.53
2018-09-28T19:39:45.356Z,10.40
2018-09-28T19:42:13.039Z,3.00
2018-09-28T19:44:40.595Z,13.20
2018-09-28T19:47:07.850Z,7.93
2018-09-28T19:49:35.236Z,4.00
2018-09-28T19:52:02.668Z,8.30
2018-09-28T19:54:30.197Z,8.03
2018-09-28T19:56:57.604Z,9.93
2018-09-28T19:59:25.068Z,15.73
2018-09-28T20:01:52.560Z,13.87
2018-09-28T20:04:20.136Z,4.83
2018-09-28T20:06:47.738Z,9.37
2018-09-28T20:09:15.302Z,9.83
2018-09-28T20:11:43.039Z,7.93
2018-09-28T20:14:10.422Z,11.27
2018-09-28T20:16:38.128Z,6.27
2018-09-28T20:19:06.758Z,6.23
2018-09-28T20:21:34.407Z,6.90
2018-09-28T20:24:02.078Z,9.17
2018-09-28T20:29:07.775Z,5.50
2018-09-28T20:31:35.304Z,4.40
2018-09-28T20:34:03.047Z,6.60
2018-09-28T20:36:30.941Z,4.73
2018-09-28T20:38:58.439Z,8.40
2018-09-28T20:41:26.209Z,10.13
2018-09-28T20:43:54.161Z,4.80
2018-09-28T20:46:22.651Z,8.50
2018-09-28T20:48:51.463Z,9.83
2018-09-28T20:51:19.266Z,5.67
2018-09-28T20:53:47.034Z,6.10
2018-09-28T20:56:14.655Z,3.50
2018-09-28T20:58:42.587Z,9.47
2018-09-28T21:01:10.944Z,5.53
2018-09-28T21:03:39.403Z,8.03
2018-09-28T21:06:07.146Z,8.37
2018-09-28T21:08:35.143Z,5.30
2018-09-28T21:11:02.352Z,9.13
2018-09-28T21:13:30.541Z,5.80
2018-09-28T21:15:58.398Z,4.83
2018-09-28T21:18:26.125Z,11.03
2018-09-28T21:21:00.445Z,9.63
2018-09-28T21:23:28.259Z,5.50
2018-09-28T21:25:56.965Z,5.60
2018-09-28T21:28:25.511Z,5.70
2018-09-28T21:30:54.385Z,5.87
2018-09-28T21:33:21.631Z,5.10
2018-09-28T21:35:49.108Z,5.13
2018-09-28T21:38:16.873Z,7.43
2018-09-28T21:43:17.718Z,9.33
2018-09-28T21:45:45.202Z,12.33
2018-09-28T21:48:12.688Z,41.73
2018-09-28T21:50:40.345Z,12.53
2018-09-28T21:53:08.154Z,7.80
2018-09-28T21:55:35.847Z,5.37
2018-09-28T21:58:03.895Z,3.93
2018-09-28T22:00:34.663Z,8.80
2018-09-28T22:03:02.093Z,6.43
2018-09-28T22:05:30.451Z,4.60
2018-09-28T22:07:58.155Z,7.33
2018-09-28T22:10:26.130Z,3.00
2018-09-28T22:12:54.574Z,6.43
2018-09-28T22:15:22.450Z,7.13
2018-09-28T22:17:50.030Z,4.60
2018-09-28T22:20:18.003Z,14.63
2018-09-28T22:22:48.078Z,2.67
2018-09-28T22:25:16.730Z,8.10
2018-09-28T22:27:44.442Z,5.10
2018-09-28T22:30:12.706Z,4.40
2018-09-28T22:32:42.432Z,6.43
2018-09-28T22:35:12.086Z,9.80
2018-09-28T22:37:39.991Z,3.70
2018-09-28T22:40:07.281Z,4.50
2018-09-28T22:42:34.561Z,3.20
2018-09-28T22:45:01.776Z,2.93
2018-09-28T22:47:29.024Z,2.90
2018-09-28T22:49:56.245Z,2.97
2018-09-28T22:52:23.669Z,3.20
2018-09-28T22:54:50.917Z,4.60
2018-09-28T22:57:18.147Z,2.77
2018-09-28T22:59:45.391Z,3.23
2018-09-28T23:02:12.720Z,4.37
2018-09-28T23:04:39.973Z,4.20
2018-09-28T23:07:07.325Z,2.70
2018-09-28T23:09:34.511Z,2.73
2018-09-28T23:12:01.743Z,6.57
2018-09-28T23:14:29.030Z,8.33
2018-09-28T23:16:56.380Z,4.40
2018-09-28T23:19:23.562Z,4.50
2018-09-28T23:21:50.960Z,11.13
2018-09-28T23:24:18.423Z,11.33
2018-09-28T23:26:45.762Z,2.57
2018-09-28T23:29:13.010Z,5.67
2018-09-28T23:31:40.527Z,3.00
2018-09-28T23:34:07.948Z,3.43
2018-09-28T23:36:35.190Z,2.77
2018-09-28T23:39:02.471Z,7.43
2018-09-28T23:41:32.088Z,5.70
2018-09-28T23:52:41.939Z,7.03
2018-09-28T23:55:10.792Z,6.17
2018-09-28T23:57:38.666Z,3.53
